CSN354 UBBB-ZGGG
Flight info
| Callsign | CSN354 |
|---|---|
| Flight time | N/A |
| Altitude | 33000 |
| Route | NAMAS N35 RODAR A909 TUNEK B143 KRS B738 NEBIT B476 DARVA/K0896F350 T898 OGOLI N193 SR L163 TISIB L141 KAMUD/K0895S1070 W186 SADAN Y1 IRTOL/K0893S1130 Y1 OMBON W245 OVRAL B330 SJG G586 QP B330 GYA GYA7 |
| Aircraft | B77W/H-SDE1E2E3FGHIJ2J3J4J5M1RWXY/LB1D1 |
Departure
| Time | 2026-05-04 08:42 |
|---|---|
| Airport | Heydar Aliyev International Airport (UBBB) |
Arrival
| Time | N/A |
|---|---|
| Airport | Guangzhou Baiyun International Airport (ZGGG) |
| Time | Latitude | Longitude | Altitude | Speed | Heading |
|---|---|---|---|---|---|
| 2026-05-04 08:17 | 40.46625 | 50.05072 | 22 ft | 0 kts | 117° |
| 2026-05-04 08:25 | 40.46629 | 50.05060 | 22 ft | 2 kts | 117° |
| 2026-05-04 08:26 | 40.46636 | 50.05043 | 22 ft | 2 kts | 117° |
| 2026-05-04 08:27 | 40.46603 | 50.04932 | 22 ft | 2 kts | 27° |
| 2026-05-04 08:28 | 40.46596 | 50.04927 | 22 ft | 0 kts | 28° |
| 2026-05-04 08:31 | 40.46599 | 50.04929 | 22 ft | 1 kts | 28° |
| 2026-05-04 08:33 | 40.46925 | 50.05095 | 22 ft | 9 kts | 75° |
| 2026-05-04 08:33 | 40.46929 | 50.05189 | 22 ft | 10 kts | 88° |
| 2026-05-04 08:35 | 40.46946 | 50.05857 | 22 ft | 10 kts | 88° |
| 2026-05-04 08:35 | 40.46948 | 50.05950 | 22 ft | 9 kts | 88° |
| 2026-05-04 08:35 | 40.46953 | 50.06041 | 22 ft | 9 kts | 70° |
| 2026-05-04 08:35 | 40.47008 | 50.06084 | 22 ft | 10 kts | 5° |
| 2026-05-04 08:37 | 40.47518 | 50.06079 | 22 ft | 13 kts | 359° |
| 2026-05-04 08:37 | 40.47582 | 50.06078 | 22 ft | 13 kts | 359° |
| 2026-05-04 08:37 | 40.47713 | 50.06076 | 22 ft | 14 kts | 359° |
| 2026-05-04 08:38 | 40.47812 | 50.06075 | 22 ft | 14 kts | 359° |
| 2026-05-04 08:38 | 40.47915 | 50.06073 | 22 ft | 14 kts | 359° |
| 2026-05-04 08:38 | 40.48013 | 50.06072 | 22 ft | 13 kts | 359° |
| 2026-05-04 08:40 | 40.48462 | 50.06069 | 22 ft | 5 kts | 10° |
| 2026-05-04 08:40 | 40.48495 | 50.06092 | 22 ft | 4 kts | 54° |
| 2026-05-04 08:40 | 40.48506 | 50.06146 | 22 ft | 7 kts | 89° |
| 2026-05-04 08:41 | 40.48506 | 50.06222 | 22 ft | 9 kts | 90° |
| 2026-05-04 08:41 | 40.48477 | 50.06279 | 22 ft | 9 kts | 165° |
| 2026-05-04 08:41 | 40.48402 | 50.06284 | 22 ft | 16 kts | 180° |
| 2026-05-04 08:41 | 40.48109 | 50.06288 | 22 ft | 75 kts | 179° |
| 2026-05-04 08:42 | 40.47356 | 50.06299 | 22 ft | 139 kts | 179° |
| 2026-05-04 08:42 | 40.46230 | 50.06324 | 284 ft | 169 kts | 179° |
| 2026-05-04 08:42 | 40.45078 | 50.06351 | 981 ft | 173 kts | 180° |
| 2026-05-04 08:42 | 40.43830 | 50.06364 | 1465 ft | 183 kts | 180° |
| 2026-05-04 08:43 | 40.42497 | 50.06383 | 1778 ft | 200 kts | 180° |
| 2026-05-04 08:43 | 40.41029 | 50.06404 | 2095 ft | 219 kts | 181° |
| 2026-05-04 08:43 | 40.39424 | 50.06427 | 2509 ft | 236 kts | 181° |
| 2026-05-04 08:43 | 40.37749 | 50.06459 | 3128 ft | 244 kts | 179° |
| 2026-05-04 08:44 | 40.36074 | 50.07061 | 3802 ft | 254 kts | 153° |
| 2026-05-04 08:44 | 40.34679 | 50.08517 | 4540 ft | 260 kts | 141° |
| 2026-05-04 08:46 | 40.28328 | 50.23394 | 7957 ft | 303 kts | 94° |
| 2026-05-04 08:46 | 40.28307 | 50.26202 | 7957 ft | 304 kts | 94° |
| 2026-05-04 08:46 | 40.28290 | 50.28970 | 7955 ft | 304 kts | 92° |
| 2026-05-04 08:46 | 40.28520 | 50.31800 | 8058 ft | 315 kts | 84° |
| 2026-05-04 08:47 | 40.28896 | 50.34668 | 8890 ft | 311 kts | 83° |
| 2026-05-04 08:47 | 40.29270 | 50.37476 | 9606 ft | 312 kts | 83° |
| 2026-05-04 08:47 | 40.29644 | 50.40343 | 10170 ft | 319 kts | 83° |
| 2026-05-04 08:47 | 40.30027 | 50.43315 | 10475 ft | 336 kts | 83° |
| 2026-05-04 08:48 | 40.30423 | 50.46397 | 10777 ft | 353 kts | 83° |
| 2026-05-04 08:48 | 40.30847 | 50.49695 | 11110 ft | 369 kts | 83° |
| 2026-05-04 08:48 | 40.31287 | 50.53120 | 11479 ft | 384 kts | 82° |
| 2026-05-04 08:48 | 40.31734 | 50.56619 | 11844 ft | 399 kts | 82° |
| 2026-05-04 08:49 | 40.32199 | 50.60258 | 12249 ft | 412 kts | 82° |
| 2026-05-04 08:50 | 40.35121 | 50.83335 | 16527 ft | 441 kts | 83° |
| 2026-05-04 08:50 | 40.35461 | 50.86051 | 16977 ft | 445 kts | 83° |
| 2026-05-04 08:51 | 40.35961 | 50.90052 | 17644 ft | 450 kts | 83° |
| 2026-05-04 08:51 | 40.36770 | 50.95483 | 18531 ft | 457 kts | 78° |
| 2026-05-04 08:51 | 40.37536 | 50.99555 | 19185 ft | 461 kts | 78° |
| 2026-05-04 08:51 | 40.38306 | 51.03657 | 19898 ft | 464 kts | 78° |
| 2026-05-04 08:52 | 40.39086 | 51.07853 | 20553 ft | 468 kts | 78° |
| 2026-05-04 08:52 | 40.39856 | 51.12035 | 21208 ft | 471 kts | 78° |
| 2026-05-04 08:52 | 40.40626 | 51.16248 | 21859 ft | 474 kts | 78° |
| 2026-05-04 08:52 | 40.41401 | 51.20509 | 22443 ft | 478 kts | 78° |
| 2026-05-04 08:53 | 40.42172 | 51.24770 | 23034 ft | 482 kts | 78° |
| 2026-05-04 08:54 | 40.45544 | 51.55928 | 26789 ft | 498 kts | 104° |
| 2026-05-04 08:55 | 40.44756 | 51.60448 | 27335 ft | 500 kts | 106° |
| 2026-05-04 08:55 | 40.44210 | 51.63433 | 27726 ft | 501 kts | 106° |
| 2026-05-04 08:55 | 40.43117 | 51.69380 | 28418 ft | 504 kts | 107° |
| 2026-05-04 08:55 | 40.42271 | 51.73971 | 28867 ft | 508 kts | 107° |
| 2026-05-04 08:57 | 40.36304 | 52.06118 | 32332 ft | 513 kts | 107° |
| 2026-05-04 09:01 | 40.21154 | 52.68550 | 32889 ft | 504 kts | 129° |
| 2026-05-04 09:01 | 40.17185 | 52.76144 | 32888 ft | 504 kts | 129° |
| 2026-05-04 09:02 | 40.13180 | 52.83770 | 32895 ft | 506 kts | 129° |
| 2026-05-04 09:02 | 40.09919 | 52.90228 | 32893 ft | 509 kts | 122° |
| 2026-05-04 09:03 | 40.07204 | 53.00509 | 32905 ft | 519 kts | 101° |
| 2026-05-04 09:03 | 40.07097 | 53.09953 | 32911 ft | 527 kts | 83° |
| 2026-05-04 09:04 | 40.09084 | 53.19217 | 32921 ft | 528 kts | 68° |
| 2026-05-04 09:04 | 40.11821 | 53.28174 | 32916 ft | 527 kts | 68° |
| 2026-05-04 09:05 | 40.14059 | 53.35616 | 32916 ft | 527 kts | 69° |
| 2026-05-04 09:05 | 40.17148 | 53.46053 | 32912 ft | 527 kts | 69° |
| 2026-05-04 09:06 | 40.19774 | 53.55023 | 32910 ft | 526 kts | 69° |
| 2026-05-04 09:08 | 40.30139 | 53.90969 | 32878 ft | 524 kts | 69° |
| 2026-05-04 09:08 | 40.32705 | 53.99962 | 32876 ft | 524 kts | 69° |
| 2026-05-04 09:09 | 40.35258 | 54.08942 | 32879 ft | 523 kts | 69° |
| 2026-05-04 09:09 | 40.37801 | 54.17921 | 32882 ft | 524 kts | 69° |
| 2026-05-04 09:10 | 40.39909 | 54.25388 | 32875 ft | 523 kts | 69° |
| 2026-05-04 09:10 | 40.42852 | 54.35849 | 32880 ft | 523 kts | 69° |
| 2026-05-04 09:11 | 40.44959 | 54.43364 | 32894 ft | 522 kts | 69° |
| 2026-05-04 09:11 | 40.47452 | 54.52287 | 32907 ft | 521 kts | 69° |
| 2026-05-04 09:12 | 40.49948 | 54.61250 | 32910 ft | 521 kts | 69° |
| 2026-05-04 09:14 | 40.59860 | 54.97163 | 32913 ft | 519 kts | 70° |
| 2026-05-04 09:14 | 40.62302 | 55.06090 | 32912 ft | 517 kts | 70° |
| 2026-05-04 09:15 | 40.64736 | 55.15019 | 32915 ft | 517 kts | 70° |
| 2026-05-04 09:15 | 40.67571 | 55.25458 | 32916 ft | 517 kts | 70° |
| 2026-05-04 09:17 | 40.78404 | 55.65760 | 32912 ft | 515 kts | 70° |
| 2026-05-04 09:18 | 40.80793 | 55.74737 | 32905 ft | 516 kts | 70° |
| 2026-05-04 09:18 | 40.82777 | 55.82216 | 32892 ft | 514 kts | 70° |
| 2026-05-04 09:19 | 40.85543 | 55.92684 | 32886 ft | 514 kts | 70° |
| 2026-05-04 09:19 | 40.87500 | 56.00112 | 32874 ft | 513 kts | 70° |
| 2026-05-04 09:20 | 40.90221 | 56.10486 | 32883 ft | 513 kts | 71° |
| 2026-05-04 09:20 | 40.92171 | 56.17946 | 32890 ft | 513 kts | 70° |
| 2026-05-04 09:21 | 40.94892 | 56.28390 | 32896 ft | 514 kts | 70° |
| 2026-05-04 09:21 | 40.97221 | 56.37370 | 32892 ft | 512 kts | 70° |
| 2026-05-04 09:22 | 40.99527 | 56.46291 | 32900 ft | 512 kts | 70° |
| 2026-05-04 09:22 | 41.00998 | 56.53984 | 32908 ft | 514 kts | 80° |
| 2026-05-04 09:23 | 41.02153 | 56.63290 | 32926 ft | 513 kts | 80° |
| 2026-05-04 09:23 | 41.03474 | 56.74262 | 32940 ft | 514 kts | 81° |
| 2026-05-04 09:25 | 41.07867 | 57.11726 | 32926 ft | 512 kts | 81° |
| 2026-05-04 09:26 | 41.08944 | 57.21099 | 32924 ft | 512 kts | 81° |
| 2026-05-04 09:26 | 41.09839 | 57.28946 | 32924 ft | 512 kts | 81° |
| 2026-05-04 09:27 | 41.10904 | 57.38353 | 32925 ft | 511 kts | 81° |
| 2026-05-04 09:27 | 41.12129 | 57.49257 | 32931 ft | 512 kts | 81° |
| 2026-05-04 09:28 | 41.13171 | 57.58606 | 32932 ft | 512 kts | 81° |
| 2026-05-04 09:28 | 41.14035 | 57.66419 | 32937 ft | 510 kts | 82° |
| 2026-05-04 09:29 | 41.15058 | 57.75724 | 32928 ft | 510 kts | 82° |
| 2026-05-04 09:29 | 41.16247 | 57.86641 | 32933 ft | 511 kts | 82° |
| 2026-05-04 09:30 | 41.17100 | 57.94529 | 32938 ft | 510 kts | 82° |
| 2026-05-04 09:30 | 41.18266 | 58.05400 | 32943 ft | 509 kts | 82° |
| 2026-05-04 09:31 | 41.19099 | 58.13224 | 32943 ft | 509 kts | 82° |
| 2026-05-04 09:31 | 41.20245 | 58.24069 | 32952 ft | 508 kts | 82° |
| 2026-05-04 09:32 | 41.21060 | 58.31842 | 32947 ft | 508 kts | 82° |
| 2026-05-04 09:34 | 41.24896 | 58.69139 | 32961 ft | 506 kts | 83° |
| 2026-05-04 09:34 | 41.25990 | 58.80010 | 32967 ft | 506 kts | 83° |
| 2026-05-04 09:35 | 41.26915 | 58.89284 | 32966 ft | 505 kts | 83° |
| 2026-05-04 09:35 | 41.27836 | 58.98586 | 32970 ft | 505 kts | 83° |
| 2026-05-04 09:37 | 41.31428 | 59.35671 | 32993 ft | 503 kts | 83° |
| 2026-05-04 09:38 | 41.32160 | 59.43384 | 32991 ft | 504 kts | 83° |
| 2026-05-04 09:38 | 41.33044 | 59.52784 | 32991 ft | 503 kts | 83° |
| 2026-05-04 09:39 | 41.33903 | 59.61990 | 32993 ft | 504 kts | 83° |
| 2026-05-04 09:39 | 41.34040 | 59.72959 | 32995 ft | 502 kts | 94° |
| 2026-05-04 09:40 | 41.33614 | 59.82252 | 32988 ft | 502 kts | 94° |
| 2026-05-04 09:40 | 41.33248 | 59.90025 | 32992 ft | 503 kts | 94° |
| 2026-05-04 09:42 | 41.31443 | 60.27372 | 33008 ft | 502 kts | 94° |
| 2026-05-04 09:43 | 41.30904 | 60.38227 | 33007 ft | 501 kts | 94° |
| 2026-05-04 09:43 | 41.30840 | 60.46012 | 33010 ft | 503 kts | 86° |
| 2026-05-04 09:44 | 41.31339 | 60.55353 | 33010 ft | 502 kts | 85° |
| 2026-05-04 09:46 | 41.33350 | 60.94021 | 33011 ft | 501 kts | 86° |
| 2026-05-04 09:46 | 41.33733 | 61.01749 | 33010 ft | 501 kts | 86° |
| 2026-05-04 09:47 | 41.34262 | 61.12589 | 33016 ft | 500 kts | 86° |
| 2026-05-04 09:49 | 41.35924 | 61.48110 | 33007 ft | 499 kts | 86° |
| 2026-05-04 09:51 | 41.37355 | 61.80521 | 33015 ft | 499 kts | 86° |
| 2026-05-04 09:51 | 41.37744 | 61.89699 | 33006 ft | 497 kts | 86° |
| 2026-05-04 09:52 | 41.38191 | 62.00485 | 33003 ft | 497 kts | 86° |
| 2026-05-04 09:52 | 41.38508 | 62.08275 | 33008 ft | 497 kts | 86° |
| 2026-05-04 09:53 | 41.38875 | 62.17480 | 33010 ft | 497 kts | 86° |
| 2026-05-04 09:53 | 41.39300 | 62.28353 | 33007 ft | 496 kts | 86° |
| 2026-05-04 09:54 | 41.39592 | 62.35995 | 33004 ft | 496 kts | 86° |
| 2026-05-04 09:54 | 41.39941 | 62.45295 | 33002 ft | 496 kts | 86° |
| 2026-05-04 09:55 | 41.40285 | 62.54499 | 33001 ft | 497 kts | 86° |
| 2026-05-04 09:55 | 41.40650 | 62.63737 | 33000 ft | 495 kts | 86° |
| 2026-05-04 09:56 | 41.41005 | 62.72935 | 33000 ft | 496 kts | 87° |
| 2026-05-04 09:56 | 41.41411 | 62.83689 | 32994 ft | 495 kts | 86° |
| 2026-05-04 09:57 | 41.41692 | 62.91331 | 32996 ft | 496 kts | 86° |
| 2026-05-04 09:57 | 41.42027 | 63.00607 | 32997 ft | 494 kts | 86° |
| 2026-05-04 09:58 | 41.42351 | 63.09800 | 32995 ft | 496 kts | 86° |
| 2026-05-04 09:58 | 41.42667 | 63.18979 | 33001 ft | 495 kts | 86° |
| 2026-05-04 10:00 | 41.43861 | 63.55776 | 33009 ft | 494 kts | 86° |
| 2026-05-04 10:04 | 41.45584 | 64.20016 | 33023 ft | 493 kts | 86° |
| 2026-05-04 10:04 | 41.45799 | 64.29218 | 33028 ft | 493 kts | 86° |
| 2026-05-04 10:05 | 41.46039 | 64.39892 | 33029 ft | 493 kts | 86° |
| 2026-05-04 10:05 | 41.46206 | 64.47570 | 33030 ft | 493 kts | 86° |
| 2026-05-04 10:06 | 41.46429 | 64.58266 | 33032 ft | 493 kts | 86° |
| 2026-05-04 10:06 | 41.46614 | 64.67483 | 33022 ft | 493 kts | 87° |
| 2026-05-04 10:08 | 41.47201 | 64.99638 | 33014 ft | 493 kts | 87° |
| 2026-05-04 10:08 | 41.47329 | 65.07336 | 33014 ft | 492 kts | 86° |
| 2026-05-04 10:09 | 41.47496 | 65.17988 | 33016 ft | 493 kts | 86° |
| 2026-05-04 10:09 | 41.47632 | 65.27123 | 33019 ft | 492 kts | 86° |
| 2026-05-04 10:10 | 41.47741 | 65.34768 | 33013 ft | 492 kts | 86° |
| 2026-05-04 10:10 | 41.47863 | 65.43929 | 33009 ft | 492 kts | 86° |
| 2026-05-04 10:11 | 41.47979 | 65.53093 | 33008 ft | 492 kts | 86° |
| 2026-05-04 10:11 | 41.48105 | 65.63779 | 33003 ft | 490 kts | 86° |
| 2026-05-04 10:12 | 41.48204 | 65.72859 | 32999 ft | 491 kts | 87° |
| 2026-05-04 10:12 | 41.48288 | 65.82013 | 32999 ft | 489 kts | 87° |
| 2026-05-04 10:13 | 41.48310 | 65.89584 | 32999 ft | 491 kts | 87° |
| 2026-05-04 10:13 | 41.48330 | 66.00216 | 32995 ft | 490 kts | 87° |
| 2026-05-04 10:14 | 41.48340 | 66.07809 | 32999 ft | 490 kts | 87° |
| 2026-05-04 10:16 | 41.48323 | 66.44263 | 33008 ft | 489 kts | 86° |
| 2026-05-04 10:16 | 41.48302 | 66.53407 | 33012 ft | 489 kts | 86° |
| 2026-05-04 10:17 | 41.48004 | 66.62487 | 33004 ft | 493 kts | 95° |
| 2026-05-04 10:19 | 41.42540 | 67.00132 | 33004 ft | 495 kts | 97° |
| 2026-05-04 10:19 | 41.41204 | 67.09132 | 33001 ft | 495 kts | 97° |
| 2026-05-04 10:20 | 41.40076 | 67.16687 | 33010 ft | 496 kts | 97° |
| 2026-05-04 10:20 | 41.38497 | 67.27208 | 33010 ft | 494 kts | 97° |
| 2026-05-04 10:21 | 41.37132 | 67.36245 | 33001 ft | 494 kts | 97° |
| 2026-05-04 10:21 | 41.35773 | 67.45195 | 33000 ft | 492 kts | 97° |
| 2026-05-04 10:22 | 41.33944 | 67.57164 | 33003 ft | 492 kts | 97° |
| 2026-05-04 10:23 | 41.32335 | 67.67618 | 33004 ft | 493 kts | 97° |
| 2026-05-04 10:25 | 41.27432 | 68.01995 | 33007 ft | 489 kts | 92° |
| 2026-05-04 10:25 | 41.26566 | 68.12504 | 33012 ft | 488 kts | 92° |
| 2026-05-04 10:26 | 41.25924 | 68.19955 | 33008 ft | 487 kts | 92° |
| 2026-05-04 10:26 | 41.24996 | 68.30421 | 33010 ft | 487 kts | 93° |
| 2026-05-04 10:27 | 41.24185 | 68.39384 | 33011 ft | 488 kts | 93° |
| 2026-05-04 10:27 | 41.23500 | 68.46846 | 33012 ft | 486 kts | 93° |
| 2026-05-04 10:28 | 41.22673 | 68.55777 | 33013 ft | 486 kts | 94° |
| 2026-05-04 10:28 | 41.21697 | 68.66189 | 33019 ft | 485 kts | 95° |
| 2026-05-04 10:29 | 41.20849 | 68.75152 | 33014 ft | 484 kts | 95° |
| 2026-05-04 10:29 | 41.20002 | 68.84029 | 33019 ft | 484 kts | 95° |
| 2026-05-04 10:30 | 41.19285 | 68.91481 | 33017 ft | 485 kts | 95° |
| 2026-05-04 10:30 | 41.18868 | 69.01913 | 33028 ft | 483 kts | 89° |
| 2026-05-04 10:31 | 41.18701 | 69.10857 | 33034 ft | 484 kts | 89° |
| 2026-05-04 10:32 | 41.17034 | 69.40464 | 33045 ft | 479 kts | 94° |
| 2026-05-04 10:33 | 41.16172 | 69.50693 | 33055 ft | 479 kts | 94° |
| 2026-05-04 10:33 | 41.15429 | 69.59516 | 33074 ft | 478 kts | 95° |
| 2026-05-04 10:34 | 41.14810 | 69.66852 | 33096 ft | 479 kts | 95° |
| 2026-05-04 10:34 | 41.13937 | 69.77132 | 33126 ft | 478 kts | 95° |
| 2026-05-04 10:35 | 41.13185 | 69.85916 | 33149 ft | 479 kts | 96° |
| 2026-05-04 10:35 | 41.12425 | 69.94717 | 33161 ft | 478 kts | 95° |
| 2026-05-04 10:36 | 41.11661 | 70.03491 | 33165 ft | 477 kts | 96° |
| 2026-05-04 10:36 | 41.11018 | 70.10815 | 33165 ft | 478 kts | 96° |
| 2026-05-04 10:37 | 41.10241 | 70.19602 | 33168 ft | 476 kts | 96° |
| 2026-05-04 10:37 | 41.10120 | 70.28361 | 33167 ft | 475 kts | 84° |
| 2026-05-04 10:39 | 41.12370 | 70.59065 | 33185 ft | 481 kts | 84° |
| 2026-05-04 10:40 | 41.12997 | 70.67874 | 33191 ft | 475 kts | 85° |
| 2026-05-04 10:40 | 41.13711 | 70.78079 | 33178 ft | 473 kts | 85° |
| 2026-05-04 10:41 | 41.14213 | 70.85339 | 33175 ft | 474 kts | 85° |
| 2026-05-04 10:41 | 41.14809 | 70.94059 | 33173 ft | 475 kts | 85° |
| 2026-05-04 10:42 | 41.15402 | 71.02825 | 33185 ft | 476 kts | 85° |
| 2026-05-04 10:42 | 41.15988 | 71.11594 | 33177 ft | 477 kts | 85° |
| 2026-05-04 10:43 | 41.16668 | 71.21883 | 33167 ft | 476 kts | 86° |
| 2026-05-04 10:45 | 41.18907 | 71.56871 | 33090 ft | 473 kts | 85° |
| 2026-05-04 10:45 | 41.19358 | 71.64122 | 33109 ft | 472 kts | 86° |
| 2026-05-04 10:46 | 41.19984 | 71.74313 | 33088 ft | 474 kts | 86° |
| 2026-05-04 10:46 | 41.20424 | 71.81578 | 33104 ft | 474 kts | 86° |
| 2026-05-04 10:47 | 41.21030 | 71.91783 | 33101 ft | 473 kts | 86° |
| 2026-05-04 10:47 | 41.21545 | 72.00558 | 33097 ft | 472 kts | 86° |
| 2026-05-04 10:49 | 41.23540 | 72.35509 | 33133 ft | 473 kts | 86° |
| 2026-05-04 10:50 | 41.23947 | 72.42796 | 33136 ft | 472 kts | 86° |
| 2026-05-04 10:52 | 41.25820 | 72.77738 | 33176 ft | 474 kts | 87° |
| 2026-05-04 10:52 | 41.26349 | 72.88047 | 33162 ft | 474 kts | 87° |
| 2026-05-04 10:54 | 41.28003 | 73.21597 | 33214 ft | 472 kts | 87° |
| 2026-05-04 10:56 | 41.29632 | 73.56763 | 33257 ft | 475 kts | 87° |
| 2026-05-04 10:57 | 41.30022 | 73.65543 | 33266 ft | 474 kts | 88° |
| 2026-05-04 10:57 | 41.30468 | 73.75769 | 33288 ft | 475 kts | 88° |
| 2026-05-04 10:58 | 41.30780 | 73.83067 | 33299 ft | 475 kts | 88° |
| 2026-05-04 10:58 | 41.31151 | 73.91888 | 33310 ft | 477 kts | 88° |
| 2026-05-04 10:59 | 41.31517 | 74.00742 | 33316 ft | 478 kts | 88° |
| 2026-05-04 10:59 | 41.32124 | 74.09579 | 33315 ft | 477 kts | 85° |
| 2026-05-04 11:00 | 41.32784 | 74.18418 | 33316 ft | 477 kts | 85° |
| 2026-05-04 11:02 | 41.35270 | 74.53571 | 33324 ft | 476 kts | 85° |
| 2026-05-04 11:05 | 41.39595 | 75.19482 | 33323 ft | 475 kts | 86° |
| 2026-05-04 11:06 | 41.40142 | 75.28264 | 33342 ft | 476 kts | 86° |
| 2026-05-04 11:06 | 41.40682 | 75.37038 | 33340 ft | 475 kts | 86° |
| 2026-05-04 11:10 | 41.44382 | 76.00354 | 33393 ft | 478 kts | 87° |
| 2026-05-04 11:12 | 41.46236 | 76.34506 | 33393 ft | 483 kts | 87° |
| 2026-05-04 11:12 | 41.46785 | 76.45001 | 33389 ft | 483 kts | 87° |
| 2026-05-04 11:13 | 41.47248 | 76.53995 | 33387 ft | 484 kts | 87° |
| 2026-05-04 11:13 | 41.47627 | 76.61468 | 33366 ft | 485 kts | 87° |
| 2026-05-04 11:14 | 41.48156 | 76.72060 | 33358 ft | 485 kts | 88° |
| 2026-05-04 11:16 | 41.49815 | 77.06633 | 33356 ft | 488 kts | 88° |
| 2026-05-04 11:16 | 41.50235 | 77.15729 | 33362 ft | 488 kts | 88° |
| 2026-05-04 11:17 | 41.50709 | 77.26229 | 33366 ft | 487 kts | 88° |
| 2026-05-04 11:19 | 41.52220 | 77.61155 | 33386 ft | 489 kts | 87° |
| 2026-05-04 11:19 | 41.52596 | 77.70250 | 33379 ft | 488 kts | 88° |
| 2026-05-04 11:20 | 41.52967 | 77.79401 | 33362 ft | 489 kts | 88° |
| 2026-05-04 11:20 | 41.53389 | 77.90059 | 33364 ft | 490 kts | 88° |
| 2026-05-04 11:22 | 41.54710 | 78.25120 | 33361 ft | 490 kts | 88° |
| 2026-05-04 11:23 | 41.55093 | 78.35838 | 33351 ft | 491 kts | 88° |
| 2026-05-04 11:25 | 41.56131 | 78.66473 | 33318 ft | 491 kts | 89° |
| 2026-05-04 11:25 | 41.56425 | 78.75605 | 33306 ft | 490 kts | 89° |
| 2026-05-04 11:26 | 41.56179 | 78.84705 | 33289 ft | 488 kts | 102° |
| 2026-05-04 11:27 | 41.50240 | 79.15614 | 33284 ft | 488 kts | 106° |
| 2026-05-04 11:28 | 41.48478 | 79.24424 | 33271 ft | 490 kts | 106° |
| 2026-05-04 11:28 | 41.46711 | 79.33211 | 33240 ft | 489 kts | 106° |
| 2026-05-04 11:29 | 41.44923 | 79.42054 | 33231 ft | 488 kts | 107° |
| 2026-05-04 11:29 | 41.43135 | 79.50852 | 33176 ft | 489 kts | 106° |
| 2026-05-04 11:33 | 41.30405 | 80.12405 | 33127 ft | 492 kts | 107° |
| 2026-05-04 11:33 | 41.28554 | 80.21205 | 33056 ft | 493 kts | 107° |
| 2026-05-04 11:34 | 41.26693 | 80.30019 | 33045 ft | 491 kts | 107° |
| 2026-05-04 11:34 | 41.24821 | 80.38812 | 33042 ft | 492 kts | 107° |
| 2026-05-04 11:35 | 41.22945 | 80.47557 | 33039 ft | 492 kts | 107° |
| 2026-05-04 11:35 | 41.21046 | 80.56372 | 33002 ft | 494 kts | 107° |
| 2026-05-04 11:36 | 41.18839 | 80.66575 | 32967 ft | 494 kts | 108° |
| 2026-05-04 11:36 | 41.17232 | 80.73974 | 32994 ft | 492 kts | 108° |
| 2026-05-04 11:37 | 41.15311 | 80.82787 | 32948 ft | 496 kts | 108° |
| 2026-05-04 11:37 | 41.13382 | 80.91600 | 32951 ft | 496 kts | 108° |
| 2026-05-04 11:38 | 41.11448 | 81.00397 | 32950 ft | 495 kts | 108° |
| 2026-05-04 11:38 | 41.09506 | 81.09199 | 32915 ft | 495 kts | 108° |
| 2026-05-04 11:39 | 41.07244 | 81.19405 | 32910 ft | 496 kts | 108° |
| 2026-05-04 11:40 | 41.01638 | 81.44500 | 34294 ft | 498 kts | 108° |
| 2026-05-04 11:41 | 41.00655 | 81.48875 | 34819 ft | 495 kts | 109° |
| 2026-05-04 11:41 | 40.99669 | 81.53246 | 34953 ft | 499 kts | 109° |
| 2026-05-04 11:41 | 40.98671 | 81.57665 | 34976 ft | 497 kts | 109° |
| 2026-05-04 11:42 | 40.96699 | 81.66375 | 34966 ft | 494 kts | 110° |
| 2026-05-04 11:42 | 40.94953 | 81.75285 | 34965 ft | 495 kts | 107° |
| 2026-05-04 11:43 | 40.93016 | 81.85670 | 34957 ft | 496 kts | 107° |
| 2026-05-04 11:43 | 40.91618 | 81.93067 | 34958 ft | 495 kts | 107° |
| 2026-05-04 11:44 | 40.89936 | 82.01905 | 34960 ft | 495 kts | 107° |
| 2026-05-04 11:44 | 40.88221 | 82.10849 | 34972 ft | 497 kts | 107° |
| 2026-05-04 11:45 | 40.86510 | 82.19723 | 34986 ft | 495 kts | 107° |
| 2026-05-04 11:45 | 40.84803 | 82.28537 | 34968 ft | 496 kts | 107° |
| 2026-05-04 11:46 | 40.82779 | 82.38923 | 34964 ft | 496 kts | 107° |
| 2026-05-04 11:46 | 40.81047 | 82.47768 | 34972 ft | 496 kts | 107° |
| 2026-05-04 11:47 | 40.79304 | 82.56630 | 34970 ft | 496 kts | 107° |
| 2026-05-04 11:47 | 40.77854 | 82.63978 | 34977 ft | 497 kts | 107° |
| 2026-05-04 11:48 | 40.76088 | 82.72885 | 34964 ft | 495 kts | 108° |
| 2026-05-04 11:48 | 40.74325 | 82.81738 | 34968 ft | 496 kts | 108° |
| 2026-05-04 11:49 | 40.72560 | 82.90560 | 34966 ft | 497 kts | 108° |
| 2026-05-04 11:49 | 40.70786 | 82.99390 | 34971 ft | 497 kts | 108° |
| 2026-05-04 11:50 | 40.68716 | 83.09649 | 34972 ft | 496 kts | 108° |
| 2026-05-04 11:50 | 40.67208 | 83.17088 | 34971 ft | 498 kts | 108° |
| 2026-05-04 11:51 | 40.65418 | 83.25885 | 34969 ft | 496 kts | 108° |
| 2026-05-04 11:51 | 40.63613 | 83.34718 | 35061 ft | 498 kts | 108° |
| 2026-05-04 11:51 | 40.62709 | 83.39125 | 34960 ft | 496 kts | 108° |
| 2026-05-04 11:52 | 40.61801 | 83.43542 | 34960 ft | 497 kts | 108° |
| 2026-05-04 11:52 | 40.59976 | 83.52398 | 34969 ft | 499 kts | 108° |
| 2026-05-04 11:53 | 40.58148 | 83.61232 | 34975 ft | 499 kts | 108° |
| 2026-05-04 11:53 | 40.56320 | 83.70027 | 34967 ft | 497 kts | 109° |
| 2026-05-04 11:55 | 40.48704 | 84.06814 | 34966 ft | 497 kts | 108° |
| 2026-05-04 11:56 | 40.47209 | 84.14185 | 34964 ft | 499 kts | 108° |
| 2026-05-04 11:56 | 40.45113 | 84.24468 | 34967 ft | 498 kts | 108° |
| 2026-05-04 11:57 | 40.43302 | 84.33305 | 34966 ft | 498 kts | 108° |
| 2026-05-04 11:57 | 40.41787 | 84.40666 | 34969 ft | 501 kts | 108° |
| 2026-05-04 11:58 | 40.39948 | 84.49572 | 34964 ft | 499 kts | 109° |
| 2026-05-04 11:58 | 40.38116 | 84.58398 | 34970 ft | 500 kts | 109° |
| 2026-05-04 11:59 | 40.36266 | 84.67267 | 34965 ft | 507 kts | 109° |
| 2026-05-04 11:59 | 40.34348 | 84.76423 | 34962 ft | 519 kts | 109° |
| 2026-05-04 12:00 | 40.32417 | 84.85615 | 34958 ft | 518 kts | 109° |
| 2026-05-04 12:00 | 40.30481 | 84.94787 | 34947 ft | 516 kts | 109° |
| 2026-05-04 12:01 | 40.28548 | 85.03905 | 34947 ft | 517 kts | 109° |
| 2026-05-04 12:02 | 40.21737 | 85.35719 | 34966 ft | 518 kts | 110° |
| 2026-05-04 12:03 | 40.19765 | 85.44846 | 34975 ft | 520 kts | 110° |
| 2026-05-04 12:03 | 40.17458 | 85.55473 | 34978 ft | 518 kts | 110° |
| 2026-05-04 12:04 | 40.15803 | 85.63065 | 34973 ft | 519 kts | 110° |
| 2026-05-04 12:04 | 40.13805 | 85.72192 | 34964 ft | 519 kts | 111° |
| 2026-05-04 12:05 | 40.11793 | 85.81345 | 34960 ft | 520 kts | 111° |
| 2026-05-04 12:05 | 40.09786 | 85.90443 | 34963 ft | 518 kts | 111° |
| 2026-05-04 12:06 | 40.07439 | 86.01024 | 34965 ft | 520 kts | 111° |
| 2026-05-04 12:06 | 40.05047 | 86.09974 | 34975 ft | 518 kts | 115° |
| 2026-05-04 12:07 | 40.03006 | 86.17360 | 34972 ft | 517 kts | 115° |
| 2026-05-04 12:07 | 40.00556 | 86.26250 | 34979 ft | 518 kts | 114° |
| 2026-05-04 12:08 | 39.98112 | 86.35124 | 34981 ft | 520 kts | 114° |
| 2026-05-04 12:08 | 39.95662 | 86.44016 | 34983 ft | 522 kts | 114° |
| 2026-05-04 12:09 | 39.94835 | 86.47011 | 34980 ft | 523 kts | 114° |